createdAt,value
2018-08-06T00:00:33.857Z,98397.98
2018-08-06T00:03:02.923Z,98397.42
2018-08-06T00:05:31.261Z,98399.23
2018-08-06T00:07:58.827Z,98406.81
2018-08-06T00:10:27.144Z,98400.55
2018-08-06T00:12:56.087Z,98398.62
2018-08-06T00:15:26.159Z,98402.13
2018-08-06T00:17:53.709Z,98407.08
2018-08-06T00:20:21.385Z,98402.25
2018-08-06T00:22:50.064Z,98410.81
2018-08-06T00:25:19.519Z,98409.86
2018-08-06T00:27:47.857Z,98410.83
2018-08-06T00:30:17.373Z,98406.23
2018-08-06T00:32:45.724Z,98406.12
2018-08-06T00:35:14.050Z,98404.19
2018-08-06T00:37:41.958Z,98402.98
2018-08-06T00:40:14.143Z,98401.30
2018-08-06T00:42:43.913Z,98396.86
2018-08-06T00:45:15.008Z,98390.83
2018-08-06T00:47:44.048Z,98388.06
2018-08-06T00:50:12.391Z,98381.88
2018-08-06T00:52:40.325Z,98389.09
2018-08-06T00:55:12.489Z,98385.48
2018-08-06T00:57:40.787Z,98380.78
2018-08-06T01:00:13.098Z,98382.25
2018-08-06T01:02:50.385Z,98380.30
2018-08-06T01:05:18.739Z,98384.27
2018-08-06T01:07:46.488Z,98382.47
2018-08-06T01:10:20.295Z,98377.87
2018-08-06T01:12:49.232Z,98379.80
2018-08-06T01:15:18.139Z,98378.25
2018-08-06T01:17:47.014Z,98382.77
2018-08-06T01:20:15.595Z,98384.78
2018-08-06T01:22:45.067Z,98386.25
2018-08-06T01:25:14.112Z,98377.05
2018-08-06T01:27:41.892Z,98381.75
2018-08-06T01:30:11.988Z,98381.59
2018-08-06T01:32:40.518Z,98380.95
2018-08-06T01:35:10.517Z,98371.39
2018-08-06T01:37:39.374Z,98368.00
2018-08-06T01:40:09.753Z,98370.33
2018-08-06T01:42:38.209Z,98371.23
2018-08-06T01:45:06.807Z,98372.23
2018-08-06T01:47:35.111Z,98375.82
2018-08-06T01:50:04.187Z,98379.63
2018-08-06T01:52:32.532Z,98384.55
2018-08-06T01:55:01.549Z,98380.73
2018-08-06T01:57:29.401Z,98376.14
2018-08-06T01:59:58.111Z,98375.56
2018-08-06T02:02:25.678Z,98375.09
2018-08-06T02:04:54.161Z,98373.12
2018-08-06T02:07:22.038Z,98370.37
2018-08-06T02:09:50.755Z,98370.27
2018-08-06T02:12:18.983Z,98368.09
2018-08-06T02:14:49.028Z,98367.63
2018-08-06T02:17:17.396Z,98369.89
2018-08-06T02:19:45.987Z,98365.83
2018-08-06T02:22:14.292Z,98372.78
2018-08-06T02:24:43.010Z,98374.13
2018-08-06T02:27:10.582Z,98376.28
2018-08-06T02:29:38.323Z,98380.27
2018-08-06T02:32:07.183Z,98374.77
2018-08-06T02:34:36.278Z,98376.47
2018-08-06T02:37:03.987Z,98379.66
2018-08-06T02:39:33.192Z,98368.19
2018-08-06T02:42:01.007Z,98370.65
2018-08-06T02:44:30.109Z,98369.28
2018-08-06T02:46:57.598Z,98371.92
2018-08-06T02:49:25.679Z,98377.15
2018-08-06T02:51:55.110Z,98373.27
2018-08-06T02:54:22.633Z,98372.95
2018-08-06T02:56:51.797Z,98367.91
2018-08-06T02:59:20.677Z,98371.77
2018-08-06T03:01:49.321Z,98367.30
2018-08-06T03:04:17.200Z,98366.66
2018-08-06T03:06:45.642Z,98366.27
2018-08-06T03:09:13.964Z,98366.37
2018-08-06T03:11:42.029Z,98367.14
2018-08-06T03:14:10.557Z,98366.64
2018-08-06T03:16:39.493Z,98372.23
2018-08-06T03:19:07.441Z,98373.59
2018-08-06T03:21:35.114Z,98371.93
2018-08-06T03:24:02.880Z,98369.65
2018-08-06T03:26:30.817Z,98367.01
2018-08-06T03:28:58.715Z,98368.75
2018-08-06T03:31:28.735Z,98362.59
2018-08-06T03:33:56.792Z,98372.07
2018-08-06T03:36:24.332Z,98365.41
2018-08-06T03:38:52.465Z,98361.72
2018-08-06T03:41:21.508Z,98359.75
2018-08-06T03:43:49.972Z,98363.67
2018-08-06T03:46:18.299Z,98358.30
2018-08-06T03:48:47.745Z,98360.77
2018-08-06T03:51:15.690Z,98356.20
2018-08-06T03:53:43.765Z,98360.35
2018-08-06T03:56:11.945Z,98356.67
2018-08-06T03:58:40.808Z,98360.73
2018-08-06T04:01:13.970Z,98354.17
2018-08-06T04:03:44.181Z,98354.68
2018-08-06T04:06:12.214Z,98353.97
2018-08-06T04:08:39.838Z,98360.40
2018-08-06T04:11:09.888Z,98360.73
2018-08-06T04:13:38.766Z,98366.83
2018-08-06T04:16:06.791Z,98366.52
2018-08-06T04:18:36.725Z,98360.23
2018-08-06T04:21:05.715Z,98367.53
2018-08-06T04:23:34.435Z,98367.53
2018-08-06T04:26:02.064Z,98368.38
2018-08-06T04:28:30.934Z,98371.88
2018-08-06T04:30:59.338Z,98373.32
2018-08-06T04:33:27.821Z,98374.27
2018-08-06T04:35:57.635Z,98374.95
2018-08-06T04:38:25.382Z,98375.34
2018-08-06T04:40:52.863Z,98379.55
2018-08-06T04:43:22.745Z,98383.99
2018-08-06T04:45:52.630Z,98389.91
2018-08-06T04:48:20.183Z,98387.23
2018-08-06T04:50:49.274Z,98394.22
2018-08-06T04:53:17.558Z,98391.67
2018-08-06T04:55:45.095Z,98394.50
2018-08-06T04:58:13.705Z,98398.66
2018-08-06T05:00:42.171Z,98389.14
2018-08-06T05:03:09.874Z,98390.83
2018-08-06T05:05:37.383Z,98388.04
2018-08-06T05:08:06.193Z,98383.02
2018-08-06T05:10:34.916Z,98385.03
2018-08-06T05:13:02.431Z,98383.45
2018-08-06T05:15:32.041Z,98385.08
2018-08-06T05:18:03.829Z,98389.78
2018-08-06T05:20:32.452Z,98389.53
2018-08-06T05:23:00.775Z,98391.00
2018-08-06T05:25:28.449Z,98397.14
2018-08-06T05:27:57.056Z,98395.11
2018-08-06T05:30:25.189Z,98394.56
2018-08-06T05:32:53.029Z,98398.23
2018-08-06T05:35:21.040Z,98397.17
2018-08-06T05:37:49.712Z,98396.44
2018-08-06T05:40:18.772Z,98397.08
2018-08-06T05:42:47.386Z,98397.08
2018-08-06T05:45:15.934Z,98405.86
2018-08-06T05:47:44.465Z,98407.46
2018-08-06T05:50:14.237Z,98401.07
2018-08-06T05:52:50.244Z,98399.50
2018-08-06T05:55:18.901Z,98398.05
2018-08-06T05:57:47.406Z,98402.16
2018-08-06T06:00:17.714Z,98405.17
2018-08-06T06:02:46.761Z,98404.80
2018-08-06T06:05:15.379Z,98401.56
2018-08-06T06:07:43.383Z,98399.09
2018-08-06T06:10:13.424Z,98391.86
2018-08-06T06:12:41.403Z,98399.59
2018-08-06T06:15:13.252Z,98397.00
2018-08-06T06:17:41.714Z,98402.39
2018-08-06T06:20:11.250Z,98395.09
2018-08-06T06:22:39.919Z,98395.38
2018-08-06T06:25:10.873Z,98400.52
2018-08-06T06:27:39.599Z,98400.79
2018-08-06T06:30:10.191Z,98402.91
2018-08-06T06:32:39.445Z,98405.05
2018-08-06T06:35:14.104Z,98403.27
2018-08-06T06:37:42.431Z,98410.30
2018-08-06T06:40:13.164Z,98406.72
2018-08-06T06:42:41.997Z,98406.99
2018-08-06T06:45:10.925Z,98401.58
2018-08-06T06:47:38.745Z,98400.45
2018-08-06T06:50:10.088Z,98402.86
2018-08-06T06:52:38.526Z,98399.69
2018-08-06T06:55:10.460Z,98395.75
2018-08-06T06:57:38.784Z,98394.73
2018-08-06T07:00:08.651Z,98390.02
2018-08-06T07:02:37.008Z,98390.67
2018-08-06T07:05:05.449Z,98378.39
2018-08-06T07:07:32.952Z,98378.11
2018-08-06T07:10:01.325Z,98372.88
2018-08-06T07:12:29.744Z,98379.25
2018-08-06T07:14:58.391Z,98369.66
2018-08-06T07:17:25.856Z,98379.96
2018-08-06T07:19:53.515Z,98372.98
2018-08-06T07:22:20.874Z,98369.16
2018-08-06T07:24:49.882Z,98371.09
2018-08-06T07:27:18.745Z,98370.87
2018-08-06T07:29:46.702Z,98363.75
2018-08-06T07:32:15.034Z,98358.74
2018-08-06T07:34:43.799Z,98346.71
2018-08-06T07:37:14.340Z,98353.52
2018-08-06T07:39:42.624Z,98355.52
2018-08-06T07:42:10.841Z,98345.99
2018-08-06T07:44:38.656Z,98345.73
2018-08-06T07:47:08.227Z,98342.32
2018-08-06T07:49:36.505Z,98342.06
2018-08-06T07:52:04.252Z,98340.34
2018-08-06T07:54:32.122Z,98340.23
2018-08-06T07:56:59.623Z,98335.56
2018-08-06T07:59:28.168Z,98329.59
2018-08-06T08:01:57.467Z,98330.34
2018-08-06T08:04:27.300Z,98325.72
2018-08-06T08:06:56.765Z,98319.58
2018-08-06T08:09:25.673Z,98322.78
2018-08-06T08:11:54.009Z,98322.64
2018-08-06T08:14:22.269Z,98327.23
2018-08-06T08:16:50.022Z,98318.39
2018-08-06T08:19:18.627Z,98323.61
2018-08-06T08:21:46.181Z,98324.59
2018-08-06T08:24:14.631Z,98321.72
2018-08-06T08:26:42.181Z,98319.92
2018-08-06T08:29:09.685Z,98318.27
2018-08-06T08:31:40.133Z,98310.13
2018-08-06T08:34:09.669Z,98307.61
2018-08-06T08:36:37.099Z,98305.19
2018-08-06T08:39:08.004Z,98305.34
2018-08-06T08:41:35.673Z,98305.30
2018-08-06T08:44:03.421Z,98298.51
2018-08-06T08:46:32.123Z,98293.05
2018-08-06T08:49:01.225Z,98292.45
2018-08-06T08:51:29.345Z,98292.55
2018-08-06T08:53:57.539Z,98286.69
2018-08-06T08:56:26.734Z,98279.75
2018-08-06T08:58:54.672Z,98282.06
2018-08-06T09:01:22.052Z,98277.39
2018-08-06T09:03:49.796Z,98273.89
2018-08-06T09:06:21.208Z,98270.52
2018-08-06T09:08:51.086Z,98266.61
2018-08-06T09:11:19.503Z,98262.19
2018-08-06T09:13:48.191Z,98261.80
2018-08-06T09:16:16.547Z,98265.63
2018-08-06T09:18:45.681Z,98258.17
2018-08-06T09:21:13.469Z,98259.83
2018-08-06T09:23:42.183Z,98262.02
2018-08-06T09:26:11.703Z,98267.81
2018-08-06T09:28:39.487Z,98263.65
2018-08-06T09:31:08.366Z,98256.41
2018-08-06T09:33:37.508Z,98261.98
2018-08-06T09:36:06.608Z,98258.44
2018-08-06T09:38:36.199Z,98247.97
2018-08-06T09:41:06.517Z,98247.44
2018-08-06T09:43:34.882Z,98244.09
2018-08-06T09:46:03.282Z,98242.02
2018-08-06T09:48:31.400Z,98239.99
2018-08-06T09:50:59.478Z,98235.48
2018-08-06T09:53:28.563Z,98238.34
2018-08-06T09:55:56.634Z,98232.16
2018-08-06T09:58:25.952Z,98231.84
2018-08-06T10:00:59.174Z,98230.39
2018-08-06T10:03:29.359Z,98232.87
2018-08-06T10:05:57.889Z,98224.70
2018-08-06T10:08:26.445Z,98221.00
2018-08-06T10:10:57.215Z,98222.91
2018-08-06T10:13:26.047Z,98218.78
2018-08-06T10:15:54.224Z,98211.04
2018-08-06T10:18:22.670Z,98206.27
2018-08-06T10:20:50.181Z,98204.18
2018-08-06T10:23:18.172Z,98199.14
2018-08-06T10:25:47.110Z,98196.89
2018-08-06T10:28:17.905Z,98195.42
2018-08-06T10:30:46.726Z,98192.47
2018-08-06T10:33:15.644Z,98191.69
2018-08-06T10:35:47.332Z,98186.27
2018-08-06T10:38:16.611Z,98188.27
2018-08-06T10:40:45.093Z,98182.84
2018-08-06T10:43:13.295Z,98180.13
2018-08-06T10:45:41.742Z,98181.05
2018-08-06T10:48:09.725Z,98175.70
2018-08-06T10:50:38.243Z,98173.20
2018-08-06T10:53:07.819Z,98172.29
2018-08-06T10:55:35.862Z,98163.47
2018-08-06T10:58:04.532Z,98160.38
2018-08-06T11:00:32.191Z,98163.29
2018-08-06T11:03:00.435Z,98154.88
2018-08-06T11:05:28.849Z,98150.97
2018-08-06T11:07:57.710Z,98159.62
2018-08-06T11:10:26.058Z,98155.35
2018-08-06T11:12:54.803Z,98151.98
2018-08-06T11:15:25.186Z,98140.98
2018-08-06T11:17:54.546Z,98140.17
2018-08-06T11:20:23.638Z,98145.73
2018-08-06T11:22:53.024Z,98134.86
2018-08-06T11:25:23.138Z,98132.48
2018-08-06T11:27:52.161Z,98119.98
2018-08-06T11:30:23.390Z,98128.47
2018-08-06T11:32:54.387Z,98131.28
2018-08-06T11:35:22.413Z,98129.51
2018-08-06T11:37:50.209Z,98124.35
2018-08-06T11:40:18.588Z,98119.95
2018-08-06T11:42:47.081Z,98109.42
2018-08-06T11:45:18.257Z,98109.40
2018-08-06T11:47:47.218Z,98097.70
2018-08-06T11:50:15.466Z,98099.19
2018-08-06T11:52:45.094Z,98096.70
2018-08-06T11:55:13.239Z,98092.03
2018-08-06T11:57:42.754Z,98091.73
2018-08-06T12:00:21.736Z,98078.26
2018-08-06T12:02:49.363Z,98094.10
2018-08-06T12:05:18.089Z,98083.22
2018-08-06T12:07:49.307Z,98089.03
2018-08-06T12:10:19.435Z,98083.48
2018-08-06T12:12:48.251Z,98087.93
2018-08-06T12:15:16.626Z,98076.06
2018-08-06T12:17:44.876Z,98079.30
2018-08-06T12:20:15.267Z,98083.83
2018-08-06T12:22:44.094Z,98071.33
2018-08-06T12:25:12.784Z,98061.56
2018-08-06T12:27:41.645Z,98066.41
2018-08-06T12:30:15.165Z,98062.94
2018-08-06T12:32:44.773Z,98059.41
2018-08-06T12:35:13.387Z,98063.11
2018-08-06T12:37:42.550Z,98062.59
2018-08-06T12:40:15.538Z,98058.16
2018-08-06T12:42:43.851Z,98060.55
2018-08-06T12:45:12.922Z,98055.20
2018-08-06T12:47:44.731Z,98053.10
2018-08-06T12:50:14.694Z,98042.47
2018-08-06T12:52:44.807Z,98043.03
2018-08-06T12:55:14.682Z,98044.65
2018-08-06T12:57:45.440Z,98034.77
2018-08-06T13:00:24.439Z,98031.56
2018-08-06T13:02:52.760Z,98028.80
2018-08-06T13:05:22.858Z,98027.80
2018-08-06T13:07:51.689Z,98035.90
2018-08-06T13:10:20.671Z,98028.98
2018-08-06T13:12:50.280Z,98021.58
2018-08-06T13:15:20.225Z,98022.70
2018-08-06T13:17:48.261Z,98016.22
2018-08-06T13:20:17.137Z,98021.55
2018-08-06T13:22:45.944Z,98016.50
2018-08-06T13:25:14.184Z,98013.00
2018-08-06T13:27:46.191Z,98007.33
2018-08-06T13:30:16.450Z,98000.75
2018-08-06T13:32:45.376Z,97999.41
2018-08-06T13:35:15.020Z,98000.00
2018-08-06T13:37:45.150Z,97992.55
2018-08-06T13:40:14.025Z,97999.64
2018-08-06T13:42:42.128Z,97990.61
2018-08-06T13:45:12.175Z,97992.62
2018-08-06T13:47:41.672Z,97980.01
2018-08-06T13:50:10.950Z,97977.48
2018-08-06T13:52:40.172Z,97975.24
2018-08-06T13:55:10.325Z,97976.91
2018-08-06T13:57:38.987Z,97971.86
2018-08-06T14:00:14.429Z,97966.80
2018-08-06T14:02:42.816Z,97960.52
2018-08-06T14:05:15.288Z,97955.00
2018-08-06T14:07:44.007Z,97954.52
2018-08-06T14:10:12.293Z,97956.80
2018-08-06T14:12:40.381Z,97963.23
2018-08-06T14:15:10.450Z,97953.03
2018-08-06T14:17:38.932Z,97958.44
2018-08-06T14:20:07.425Z,97950.86
2018-08-06T14:22:36.163Z,97947.87
2018-08-06T14:25:05.343Z,97941.78
2018-08-06T14:27:33.242Z,97940.39
2018-08-06T14:30:03.171Z,97930.45
2018-08-06T14:32:31.315Z,97924.96
2018-08-06T14:35:00.493Z,97927.10
2018-08-06T14:37:29.686Z,97924.08
2018-08-06T14:39:58.425Z,97928.27
2018-08-06T14:42:27.256Z,97914.44
2018-08-06T14:44:55.367Z,97915.84
2018-08-06T14:47:24.856Z,97911.98
2018-08-06T14:49:53.233Z,97914.89
2018-08-06T14:52:22.556Z,97919.41
2018-08-06T14:54:50.839Z,97917.86
2018-08-06T14:57:18.743Z,97919.64
2018-08-06T14:59:47.102Z,97906.08
2018-08-06T15:02:14.719Z,97900.86
2018-08-06T15:04:42.399Z,97897.37
2018-08-06T15:07:11.095Z,97900.19
2018-08-06T15:09:39.028Z,97900.59
2018-08-06T15:12:07.602Z,97889.95
2018-08-06T15:14:35.874Z,97887.08
2018-08-06T15:17:04.022Z,97879.70
2018-08-06T15:19:31.779Z,97881.57
2018-08-06T15:22:00.061Z,97880.06
2018-08-06T15:24:29.050Z,97876.73
2018-08-06T15:26:58.456Z,97869.13
2018-08-06T15:29:27.242Z,97869.71
2018-08-06T15:31:57.227Z,97870.88
2018-08-06T15:34:26.010Z,97869.83
2018-08-06T15:36:54.924Z,97869.30
2018-08-06T15:39:23.412Z,97862.33
2018-08-06T15:41:52.676Z,97862.32
2018-08-06T15:44:21.136Z,97855.14
2018-08-06T15:46:49.141Z,97859.17
2018-08-06T15:49:16.828Z,97859.20
2018-08-06T15:51:44.738Z,97856.73
2018-08-06T15:54:12.514Z,97856.99
2018-08-06T15:56:42.203Z,97861.70
2018-08-06T15:59:11.185Z,97859.83
2018-08-06T16:01:40.794Z,97855.31
2018-08-06T16:04:10.384Z,97862.16
2018-08-06T16:06:39.432Z,97848.03
2018-08-06T16:09:09.785Z,97841.45
2018-08-06T16:11:37.844Z,97850.52
2018-08-06T16:14:07.357Z,97832.59
2018-08-06T16:16:36.757Z,97846.09
2018-08-06T16:19:05.272Z,97843.80
2018-08-06T16:21:33.834Z,97846.77
2018-08-06T16:24:02.301Z,97832.28
2018-08-06T16:26:39.736Z,97833.31
2018-08-06T16:29:07.384Z,97842.38
2018-08-06T16:31:35.975Z,97833.88
2018-08-06T16:34:04.408Z,97837.83
2018-08-06T16:36:32.810Z,97838.16
2018-08-06T16:39:02.057Z,97837.46
2018-08-06T16:41:30.421Z,97843.41
2018-08-06T16:43:59.657Z,97836.47
2018-08-06T16:46:28.097Z,97830.80
2018-08-06T16:48:55.582Z,97831.69
2018-08-06T16:51:23.517Z,97829.34
2018-08-06T16:53:52.200Z,97831.54
2018-08-06T16:56:20.593Z,97822.27
2018-08-06T16:58:53.279Z,97828.69
2018-08-06T17:01:22.331Z,97838.11
2018-08-06T17:03:50.448Z,97830.16
2018-08-06T17:06:20.223Z,97832.98
2018-08-06T17:08:48.265Z,97825.96
2018-08-06T17:11:17.067Z,97831.19
2018-08-06T17:13:45.733Z,97829.77
2018-08-06T17:16:14.899Z,97823.85
2018-08-06T17:18:42.894Z,97821.29
2018-08-06T17:21:10.922Z,97820.72
2018-08-06T17:23:39.455Z,97825.87
2018-08-06T17:26:07.282Z,97825.47
2018-08-06T17:28:35.893Z,97821.73
2018-08-06T17:31:04.453Z,97819.34
2018-08-06T17:33:32.164Z,97826.81
2018-08-06T17:36:00.869Z,97825.98
2018-08-06T17:38:28.998Z,97823.58
2018-08-06T17:40:59.645Z,97820.56
2018-08-06T17:43:28.078Z,97817.23
2018-08-06T17:45:57.098Z,97815.69
2018-08-06T17:48:25.500Z,97817.75
2018-08-06T17:50:53.237Z,97816.62
2018-08-06T17:53:21.458Z,97818.78
2018-08-06T17:55:51.147Z,97815.64
2018-08-06T17:58:19.780Z,97816.65
2018-08-06T18:00:47.832Z,97820.62
2018-08-06T18:03:15.177Z,97822.96
2018-08-06T18:05:43.915Z,97825.31
2018-08-06T18:08:11.484Z,97828.01
2018-08-06T18:10:40.462Z,97832.36
2018-08-06T18:13:08.180Z,97826.63
2018-08-06T18:15:39.011Z,97829.95
2018-08-06T18:18:07.334Z,97834.56
2018-08-06T18:20:40.811Z,97836.02
2018-08-06T18:23:10.174Z,97842.52
2018-08-06T18:25:38.761Z,97839.09
2018-08-06T18:28:07.663Z,97849.38
2018-08-06T18:30:35.361Z,97850.13
2018-08-06T18:33:05.341Z,97849.99
2018-08-06T18:35:34.999Z,97852.95
2018-08-06T18:38:03.400Z,97854.73
2018-08-06T18:40:31.852Z,97859.14
2018-08-06T18:43:00.196Z,97858.81
2018-08-06T18:45:28.480Z,97859.58
2018-08-06T18:47:57.249Z,97863.08
2018-08-06T18:50:24.737Z,97862.35
2018-08-06T18:52:52.514Z,97865.39
2018-08-06T18:55:21.128Z,97868.91
2018-08-06T18:57:49.976Z,97867.61
2018-08-06T19:00:21.418Z,97874.87
2018-08-06T19:02:49.920Z,97869.84
2018-08-06T19:05:19.013Z,97875.28
2018-08-06T19:07:46.407Z,97872.53
2018-08-06T19:10:14.025Z,97875.74
2018-08-06T19:12:47.151Z,97872.05
2018-08-06T19:15:15.696Z,97873.15
2018-08-06T19:17:49.683Z,97872.17
2018-08-06T19:20:17.329Z,97878.80
2018-08-06T19:22:45.366Z,97880.30
2018-08-06T19:25:20.686Z,97882.75
2018-08-06T19:27:48.691Z,97889.45
2018-08-06T19:30:17.470Z,97885.48
2018-08-06T19:32:46.532Z,97880.92
2018-08-06T19:35:14.346Z,97889.20
2018-08-06T19:37:48.292Z,97887.83
2018-08-06T19:40:16.812Z,97883.02
2018-08-06T19:42:52.078Z,97886.23
2018-08-06T19:45:20.574Z,97886.83
2018-08-06T19:47:48.772Z,97888.38
2018-08-06T19:50:23.569Z,97888.05
2018-08-06T19:52:53.963Z,97888.02
2018-08-06T19:55:28.165Z,97891.53
2018-08-06T19:57:57.032Z,97892.15
2018-08-06T20:00:24.475Z,97900.58
2018-08-06T20:02:52.019Z,97900.23
2018-08-06T20:05:19.677Z,97899.93
2018-08-06T20:07:49.429Z,97902.63
2018-08-06T20:10:17.503Z,97902.63
2018-08-06T20:12:45.434Z,97910.66
2018-08-06T20:15:15.556Z,97900.62
2018-08-06T20:17:44.758Z,97897.92
2018-08-06T20:20:14.221Z,97898.95
2018-08-06T20:22:43.043Z,97904.46
2018-08-06T20:25:16.083Z,97902.95
2018-08-06T20:27:44.533Z,97897.92
2018-08-06T20:30:14.217Z,97895.73
2018-08-06T20:32:42.415Z,97898.52
2018-08-06T20:35:13.748Z,97895.32
2018-08-06T20:37:43.492Z,97898.67
2018-08-06T20:40:12.262Z,97902.81
2018-08-06T20:42:41.877Z,97901.77
2018-08-06T20:45:13.867Z,97896.41
2018-08-06T20:47:42.226Z,97894.85
2018-08-06T20:50:12.003Z,97901.55
2018-08-06T20:52:40.340Z,97894.06
2018-08-06T20:55:10.529Z,97900.92
2018-08-06T20:57:38.553Z,97907.39
2018-08-06T21:00:08.563Z,97902.86
2018-08-06T21:02:37.389Z,97896.15
2018-08-06T21:05:07.178Z,97901.09
2018-08-06T21:07:35.306Z,97898.51
2018-08-06T21:10:04.321Z,97903.78
2018-08-06T21:12:32.795Z,97918.53
2018-08-06T21:15:02.031Z,97920.36
2018-08-06T21:17:31.167Z,97927.47
2018-08-06T21:20:02.181Z,97920.47
2018-08-06T21:22:31.623Z,97928.03
2018-08-06T21:24:59.997Z,97928.23
2018-08-06T21:27:30.002Z,97924.86
2018-08-06T21:29:59.460Z,97927.13
2018-08-06T21:32:27.061Z,97925.55
2018-08-06T21:34:54.590Z,97928.36
2018-08-06T21:37:23.496Z,97929.18
2018-08-06T21:39:51.834Z,97933.16
2018-08-06T21:42:20.233Z,97936.39
2018-08-06T21:44:48.199Z,97933.73
2018-08-06T21:47:16.116Z,97939.02
2018-08-06T21:49:43.478Z,97935.97
2018-08-06T21:52:11.463Z,97936.20
2018-08-06T21:54:39.758Z,97942.62
2018-08-06T21:57:08.199Z,97942.66
2018-08-06T21:59:39.314Z,97941.80
2018-08-06T22:02:11.320Z,97943.50
2018-08-06T22:04:39.486Z,97941.22
2018-08-06T22:07:08.043Z,97939.16
2018-08-06T22:09:37.074Z,97935.03
2018-08-06T22:12:05.266Z,97935.77
2018-08-06T22:14:33.276Z,97932.23
2018-08-06T22:17:08.248Z,97931.74
2018-08-06T22:19:37.180Z,97928.15
2018-08-06T22:22:04.796Z,97931.23
2018-08-06T22:24:33.096Z,97924.80
2018-08-06T22:27:00.490Z,97926.63
2018-08-06T22:29:29.454Z,97923.41
2018-08-06T22:32:00.325Z,97925.12
2018-08-06T22:34:28.463Z,97927.05
2018-08-06T22:36:56.022Z,97926.06
2018-08-06T22:39:23.455Z,97925.30
2018-08-06T22:41:51.040Z,97924.95
2018-08-06T22:44:19.490Z,97913.37
2018-08-06T22:46:49.039Z,97913.06
2018-08-06T22:49:17.090Z,97905.55
2018-08-06T22:51:45.984Z,97907.95
2018-08-06T22:54:15.714Z,97903.16
2018-08-06T22:56:44.952Z,97905.04
2018-08-06T22:59:15.524Z,97897.86
2018-08-06T23:01:43.449Z,97894.67
2018-08-06T23:04:11.266Z,97894.86
2018-08-06T23:06:41.630Z,97898.33
2018-08-06T23:09:12.465Z,97899.19
2018-08-06T23:11:41.775Z,97900.03
2018-08-06T23:14:10.859Z,97894.94
2018-08-06T23:16:39.635Z,97896.40
2018-08-06T23:19:07.570Z,97908.00
2018-08-06T23:21:36.100Z,97898.22
2018-08-06T23:24:06.187Z,97890.53
2018-08-06T23:26:33.906Z,97892.78
2018-08-06T23:29:01.513Z,97898.22
2018-08-06T23:31:30.209Z,97899.25
2018-08-06T23:33:58.051Z,97901.77
2018-08-06T23:36:27.026Z,97897.87
2018-08-06T23:38:55.679Z,97902.41
2018-08-06T23:41:24.291Z,97898.44
2018-08-06T23:43:53.621Z,97893.05
2018-08-06T23:46:22.432Z,97896.05
2018-08-06T23:48:51.363Z,97885.30
2018-08-06T23:51:18.951Z,97889.86
2018-08-06T23:53:47.241Z,97891.79
2018-08-06T23:56:14.893Z,97878.53
2018-08-06T23:58:42.473Z,97881.66
